createdAt,value
2023-02-28T00:01:52.019Z,2.63
2023-02-28T00:04:37.416Z,2.53
2023-02-28T00:07:23.341Z,2.45
2023-02-28T00:10:11.920Z,2.72
2023-02-28T00:13:05.579Z,3.25
2023-02-28T00:16:02.425Z,3.00
2023-02-28T00:18:50.897Z,3.22
2023-02-28T00:21:36.620Z,3.15
2023-02-28T00:24:22.056Z,3.53
2023-02-28T00:27:07.702Z,2.85
2023-02-28T00:29:54.965Z,3.40
2023-02-28T00:32:41.066Z,3.20
2023-02-28T00:35:26.706Z,3.17
2023-02-28T00:38:12.305Z,3.20
2023-02-28T00:40:57.898Z,3.70
2023-02-28T00:43:43.805Z,3.47
2023-02-28T00:46:29.342Z,3.90
2023-02-28T00:49:14.844Z,2.55
2023-02-28T00:52:00.310Z,3.63
2023-02-28T00:54:45.796Z,3.55
2023-02-28T00:57:31.549Z,3.40
2023-02-28T01:00:17.408Z,2.72
2023-02-28T01:03:02.994Z,3.55
2023-02-28T01:05:48.950Z,3.58
2023-02-28T01:08:34.450Z,3.63
2023-02-28T01:11:20.122Z,3.47
2023-02-28T01:14:06.032Z,3.70
2023-02-28T01:16:52.708Z,2.85
2023-02-28T01:19:38.020Z,3.13
2023-02-28T01:22:24.015Z,3.00
2023-02-28T01:25:09.592Z,3.40
2023-02-28T01:27:55.216Z,3.63
2023-02-28T01:30:40.733Z,3.47
2023-02-28T01:33:26.936Z,3.25
2023-02-28T01:36:15.311Z,3.30
2023-02-28T01:39:00.777Z,4.20
2023-02-28T01:41:46.314Z,3.10
2023-02-28T01:44:59.935Z,3.17
2023-02-28T01:47:46.421Z,3.50
2023-02-28T01:50:37.283Z,3.13
2023-02-28T01:53:31.390Z,3.20
2023-02-28T01:56:21.671Z,3.33
2023-02-28T01:59:07.412Z,3.92
2023-02-28T02:01:54.848Z,3.13
2023-02-28T02:04:51.031Z,2.97
2023-02-28T02:07:39.983Z,3.15
2023-02-28T02:10:47.487Z,2.85
2023-02-28T02:14:06.680Z,3.17
2023-02-28T02:17:15.938Z,3.40
2023-02-28T02:20:39.048Z,3.45
2023-02-28T02:23:34.896Z,3.25
2023-02-28T02:26:40.519Z,3.40
2023-02-28T02:29:25.790Z,3.65
2023-02-28T02:32:32.338Z,3.70
2023-02-28T02:35:49.786Z,3.65
2023-02-28T02:38:49.833Z,3.13
2023-02-28T02:41:41.721Z,3.38
2023-02-28T02:44:42.092Z,3.42
2023-02-28T02:47:31.614Z,3.38
2023-02-28T02:50:24.952Z,3.05
2023-02-28T02:53:13.572Z,4.97
2023-02-28T02:56:00.708Z,3.33
2023-02-28T02:58:49.047Z,3.38
2023-02-28T03:01:37.177Z,3.58
2023-02-28T03:04:24.923Z,3.10
2023-02-28T03:07:10.800Z,3.17
2023-02-28T03:09:58.408Z,4.78
2023-02-28T03:12:57.903Z,3.65
2023-02-28T03:16:16.557Z,4.05
2023-02-28T03:19:14.391Z,3.22
2023-02-28T03:22:18.789Z,3.85
2023-02-28T03:25:03.950Z,4.15
2023-02-28T03:27:58.366Z,3.67
2023-02-28T03:30:58.812Z,3.15
2023-02-28T03:33:55.693Z,4.00
2023-02-28T03:36:47.995Z,3.60
2023-02-28T03:39:45.404Z,4.43
2023-02-28T03:42:35.037Z,3.53
2023-02-28T03:45:28.337Z,4.65
2023-02-28T03:48:18.768Z,3.65
2023-02-28T03:51:06.940Z,3.80
2023-02-28T03:53:57.908Z,4.40
2023-02-28T03:56:57.740Z,3.38
2023-02-28T04:00:00.034Z,3.70
2023-02-28T04:02:46.271Z,4.72
2023-02-28T04:05:32.324Z,3.88
2023-02-28T04:08:17.909Z,4.78
2023-02-28T04:11:17.028Z,3.53
2023-02-28T04:14:06.263Z,3.22
2023-02-28T04:16:54.553Z,3.83
2023-02-28T04:19:40.156Z,3.40
2023-02-28T04:22:28.115Z,3.80
2023-02-28T04:25:13.320Z,3.50
2023-02-28T04:27:58.774Z,4.47
2023-02-28T04:30:43.960Z,3.20
2023-02-28T04:33:29.888Z,3.55
2023-02-28T04:36:15.677Z,3.88
2023-02-28T04:39:01.210Z,4.03
2023-02-28T04:41:47.578Z,3.58
2023-02-28T04:44:32.935Z,3.72
2023-02-28T04:47:18.380Z,4.57
2023-02-28T04:50:04.727Z,3.58
2023-02-28T04:52:49.909Z,3.88
2023-02-28T04:55:35.510Z,4.80
2023-02-28T04:58:23.385Z,3.60
2023-02-28T05:01:22.732Z,4.28
2023-02-28T05:04:08.166Z,4.00
2023-02-28T05:06:54.668Z,3.80
2023-02-28T05:09:40.209Z,3.58
2023-02-28T05:12:25.977Z,3.42
2023-02-28T05:15:16.559Z,3.63
2023-02-28T05:18:01.720Z,3.55
2023-02-28T05:20:47.446Z,4.50
2023-02-28T05:23:33.441Z,3.92
2023-02-28T05:26:19.294Z,5.07
2023-02-28T05:29:04.897Z,3.67
2023-02-28T05:31:50.818Z,6.43
2023-02-28T05:34:37.831Z,4.00
2023-02-28T05:37:23.436Z,4.60
2023-02-28T05:40:12.872Z,4.75
2023-02-28T05:42:58.177Z,5.07
2023-02-28T05:45:43.776Z,4.78
2023-02-28T05:48:29.388Z,4.55
2023-02-28T05:51:14.923Z,3.85
2023-02-28T05:54:02.219Z,4.72
2023-02-28T05:56:47.876Z,3.70
2023-02-28T05:59:33.108Z,4.82
2023-02-28T06:02:19.366Z,5.57
2023-02-28T06:05:04.785Z,4.80
2023-02-28T06:07:50.085Z,4.90
2023-02-28T06:10:36.530Z,5.63
2023-02-28T06:13:21.856Z,6.75
2023-02-28T06:16:08.310Z,5.75
2023-02-28T06:18:53.897Z,6.43
2023-02-28T06:21:39.516Z,6.85
2023-02-28T06:24:29.047Z,6.70
2023-02-28T06:27:14.799Z,7.60
2023-02-28T06:30:00.509Z,7.43
2023-02-28T06:32:46.042Z,6.38
2023-02-28T06:35:31.964Z,7.57
2023-02-28T06:38:17.354Z,6.82
2023-02-28T06:41:03.974Z,8.15
2023-02-28T06:43:49.413Z,7.13
2023-02-28T06:46:35.123Z,6.85
2023-02-28T06:49:20.610Z,7.93
2023-02-28T06:52:06.327Z,8.25
2023-02-28T06:55:00.767Z,8.20
2023-02-28T06:57:46.365Z,7.00
2023-02-28T07:00:32.042Z,8.75
2023-02-28T07:03:18.846Z,7.45
2023-02-28T07:06:05.659Z,7.15
2023-02-28T07:08:53.243Z,7.70
2023-02-28T07:11:38.497Z,7.63
2023-02-28T07:14:23.824Z,8.75
2023-02-28T07:17:12.529Z,7.25
2023-02-28T07:19:58.299Z,7.68
2023-02-28T07:22:43.891Z,8.23
2023-02-28T07:25:30.034Z,7.53
2023-02-28T07:28:15.837Z,9.07
2023-02-28T07:31:08.363Z,8.63
2023-02-28T07:33:54.974Z,8.00
2023-02-28T07:36:40.790Z,7.57
2023-02-28T07:39:26.737Z,8.35
2023-02-28T07:42:13.808Z,7.30
2023-02-28T07:45:00.004Z,8.20
2023-02-28T07:47:45.968Z,8.52
2023-02-28T07:50:32.214Z,7.60
2023-02-28T07:53:17.811Z,7.18
2023-02-28T07:56:04.843Z,6.22
2023-02-28T07:58:50.066Z,6.45
2023-02-28T08:01:36.010Z,6.57
2023-02-28T08:04:21.852Z,7.28
2023-02-28T08:07:07.727Z,6.05
2023-02-28T08:09:53.004Z,6.28
2023-02-28T08:12:38.328Z,5.95
2023-02-28T08:15:23.953Z,6.43
2023-02-28T08:18:09.677Z,6.78
2023-02-28T08:20:55.077Z,5.63
2023-02-28T08:23:40.826Z,5.07
2023-02-28T08:26:26.675Z,5.13
2023-02-28T08:29:12.211Z,4.90
2023-02-28T08:31:58.296Z,4.57
2023-02-28T08:34:43.748Z,4.45
2023-02-28T08:37:29.574Z,4.82
2023-02-28T08:40:19.137Z,3.83
2023-02-28T08:43:04.838Z,4.15
2023-02-28T08:45:53.336Z,3.97
2023-02-28T08:48:41.325Z,3.70
2023-02-28T08:51:28.313Z,4.22
2023-02-28T08:54:14.042Z,3.42
2023-02-28T08:56:59.420Z,3.55
2023-02-28T08:59:44.889Z,3.75
2023-02-28T09:02:30.437Z,3.50
2023-02-28T09:05:15.856Z,2.83
2023-02-28T09:08:01.217Z,3.22
2023-02-28T09:10:47.008Z,3.25
2023-02-28T09:13:33.341Z,3.10
2023-02-28T09:16:19.037Z,2.60
2023-02-28T09:19:04.591Z,2.30
2023-02-28T09:21:50.019Z,2.10
2023-02-28T09:24:37.162Z,2.20
2023-02-28T09:27:22.853Z,2.28
2023-02-28T09:30:10.617Z,2.55
2023-02-28T09:32:56.365Z,2.10
2023-02-28T09:35:42.016Z,2.20
2023-02-28T09:38:28.894Z,2.20
2023-02-28T09:41:18.675Z,2.30
2023-02-28T09:44:05.328Z,1.92
2023-02-28T09:46:57.028Z,2.83
2023-02-28T09:49:47.496Z,1.67
2023-02-28T09:52:33.599Z,1.80
2023-02-28T09:55:21.985Z,2.35
2023-02-28T09:58:18.307Z,3.00
2023-02-28T10:01:19.104Z,3.33
2023-02-28T10:04:37.013Z,2.33
2023-02-28T10:07:44.467Z,3.00
2023-02-28T10:10:41.821Z,2.92
2023-02-28T10:13:27.586Z,3.03
2023-02-28T10:16:17.699Z,3.30
2023-02-28T10:19:22.651Z,4.10
2023-02-28T10:22:23.100Z,3.47
2023-02-28T10:25:20.181Z,3.50
2023-02-28T10:28:18.903Z,3.20
2023-02-28T10:31:05.118Z,4.35
2023-02-28T10:33:51.481Z,3.45
2023-02-28T10:36:36.955Z,3.28
2023-02-28T10:39:44.544Z,3.30
2023-02-28T10:42:31.158Z,3.50
2023-02-28T10:45:18.121Z,3.03
2023-02-28T10:48:16.222Z,3.38
2023-02-28T10:51:05.262Z,3.20
2023-02-28T10:54:03.101Z,3.05
2023-02-28T10:57:08.167Z,1.98
2023-02-28T11:00:14.563Z,1.90
2023-02-28T11:03:00.738Z,2.13
2023-02-28T11:05:47.484Z,1.63
2023-02-28T11:08:33.736Z,1.75
2023-02-28T11:11:20.934Z,1.73
2023-02-28T11:14:08.720Z,1.67
2023-02-28T11:16:56.240Z,1.40
2023-02-28T11:19:47.549Z,3.58
2023-02-28T11:22:38.941Z,2.17
2023-02-28T11:25:28.193Z,1.30
2023-02-28T11:28:35.345Z,1.60
2023-02-28T11:31:21.766Z,1.83
2023-02-28T11:34:26.122Z,1.67
2023-02-28T11:37:21.441Z,2.25
2023-02-28T11:40:15.372Z,2.10
2023-02-28T11:46:10.210Z,2.50
2023-02-28T11:49:27.179Z,2.47
2023-02-28T11:52:49.620Z,3.00
2023-02-28T11:55:42.142Z,2.30
2023-02-28T11:58:48.960Z,2.70
2023-02-28T12:01:43.148Z,2.90
2023-02-28T12:04:29.300Z,2.72
2023-02-28T12:07:26.545Z,3.05
2023-02-28T12:10:23.366Z,2.90
2023-02-28T12:13:21.619Z,2.80
2023-02-28T12:16:45.852Z,2.30
2023-02-28T12:20:02.784Z,2.20
2023-02-28T12:23:09.497Z,2.30
2023-02-28T12:26:34.621Z,2.10
2023-02-28T12:29:33.953Z,2.78
2023-02-28T12:32:45.981Z,3.05
2023-02-28T12:35:50.663Z,3.10
2023-02-28T12:38:41.992Z,3.03
2023-02-28T12:41:45.452Z,3.08
2023-02-28T12:44:45.967Z,3.05
2023-02-28T12:47:31.452Z,2.90
2023-02-28T12:50:17.680Z,2.80
2023-02-28T12:53:11.947Z,2.45
2023-02-28T12:56:30.643Z,2.90
2023-02-28T12:59:30.993Z,2.60
2023-02-28T13:02:45.093Z,3.08
2023-02-28T13:05:40.454Z,2.55
2023-02-28T13:08:45.941Z,2.20
2023-02-28T13:11:52.958Z,2.58
2023-02-28T13:14:39.745Z,2.42
2023-02-28T13:17:27.087Z,2.83
2023-02-28T13:20:24.135Z,3.13
2023-02-28T13:23:52.304Z,2.83
2023-02-28T13:26:37.754Z,2.35
2023-02-28T13:29:32.447Z,2.55
2023-02-28T13:32:27.474Z,2.70
2023-02-28T13:35:15.512Z,3.28
2023-02-28T13:38:17.868Z,2.53
2023-02-28T13:41:31.851Z,2.83
2023-02-28T13:44:27.664Z,2.80
2023-02-28T13:47:25.728Z,2.40
2023-02-28T13:50:26.958Z,2.97
2023-02-28T13:53:27.505Z,2.63
2023-02-28T13:56:35.044Z,3.15
2023-02-28T13:59:41.366Z,2.53
2023-02-28T14:02:44.626Z,2.47
2023-02-28T14:05:32.560Z,2.55
2023-02-28T14:08:23.334Z,2.30
2023-02-28T14:11:27.580Z,2.20
2023-02-28T14:14:54.432Z,2.35
2023-02-28T14:17:41.700Z,2.05
2023-02-28T14:20:32.989Z,2.13
2023-02-28T14:23:37.099Z,1.70
2023-02-28T14:26:56.829Z,2.13
2023-02-28T14:29:51.811Z,1.80
2023-02-28T14:32:44.891Z,1.70
2023-02-28T14:35:58.960Z,2.08
2023-02-28T14:38:55.995Z,1.50
2023-02-28T14:41:43.511Z,1.65
2023-02-28T14:44:29.107Z,1.80
2023-02-28T14:47:17.439Z,1.50
2023-02-28T14:50:05.260Z,1.63
2023-02-28T14:52:56.120Z,1.88
2023-02-28T14:55:46.429Z,1.40
2023-02-28T14:58:34.090Z,2.50
2023-02-28T15:01:23.259Z,2.10
2023-02-28T15:04:28.345Z,1.70
2023-02-28T15:07:16.957Z,1.88
2023-02-28T15:10:28.097Z,2.13
2023-02-28T15:13:16.171Z,1.60
2023-02-28T15:16:09.561Z,1.63
2023-02-28T15:19:21.696Z,1.35
2023-02-28T15:22:13.881Z,1.77
2023-02-28T15:25:00.165Z,1.85
2023-02-28T15:27:50.496Z,1.55
2023-02-28T15:30:36.218Z,1.50
2023-02-28T15:33:25.925Z,1.58
2023-02-28T15:36:21.930Z,1.23
2023-02-28T15:39:26.018Z,1.50
2023-02-28T15:42:21.777Z,1.75
2023-02-28T15:45:27.327Z,1.73
2023-02-28T15:48:25.713Z,1.48
2023-02-28T15:51:46.863Z,1.42
2023-02-28T15:54:35.965Z,1.60
2023-02-28T15:57:25.364Z,1.77
2023-02-28T16:00:15.240Z,2.67
2023-02-28T16:03:01.074Z,1.90
2023-02-28T16:05:46.892Z,1.73
2023-02-28T16:08:32.298Z,1.63
2023-02-28T16:11:18.121Z,1.40
2023-02-28T16:14:04.251Z,1.77
2023-02-28T16:16:52.866Z,1.73
2023-02-28T16:19:38.758Z,1.50
2023-02-28T16:22:24.639Z,1.80
2023-02-28T16:25:17.762Z,1.60
2023-02-28T16:30:52.593Z,1.77
2023-02-28T16:33:38.240Z,1.63
2023-02-28T16:36:28.816Z,2.38
2023-02-28T16:39:14.432Z,1.85
2023-02-28T16:41:59.929Z,1.85
2023-02-28T16:44:46.931Z,1.70
2023-02-28T16:47:33.844Z,1.92
2023-02-28T16:50:22.720Z,1.70
2023-02-28T16:53:08.213Z,1.73
2023-02-28T16:55:53.530Z,1.70
2023-02-28T16:58:39.502Z,1.77
2023-02-28T17:02:04.687Z,1.33
2023-02-28T17:04:50.485Z,1.73
2023-02-28T17:07:36.232Z,2.17
2023-02-28T17:10:44.159Z,2.20
2023-02-28T17:13:31.963Z,2.00
2023-02-28T17:16:35.875Z,2.00
2023-02-28T17:19:21.964Z,2.05
2023-02-28T17:22:09.715Z,2.28
2023-02-28T17:24:58.721Z,1.73
2023-02-28T17:27:44.570Z,1.92
2023-02-28T17:30:30.449Z,2.67
2023-02-28T17:33:16.573Z,1.30
2023-02-28T17:36:02.747Z,1.65
2023-02-28T17:38:48.277Z,1.77
2023-02-28T17:41:33.934Z,1.90
2023-02-28T17:44:20.654Z,1.60
2023-02-28T17:47:06.413Z,1.42
2023-02-28T17:49:52.141Z,2.47
2023-02-28T17:52:37.847Z,1.98
2023-02-28T17:55:23.387Z,1.58
2023-02-28T17:58:12.737Z,1.95
2023-02-28T18:00:58.506Z,1.85
2023-02-28T18:03:43.826Z,1.50
2023-02-28T18:06:47.262Z,1.77
2023-02-28T18:09:33.040Z,2.10
2023-02-28T18:12:18.537Z,1.77
2023-02-28T18:15:04.568Z,1.42
2023-02-28T18:17:51.015Z,2.17
2023-02-28T18:20:37.501Z,2.00
2023-02-28T18:23:23.257Z,2.25
2023-02-28T18:26:09.315Z,2.03
2023-02-28T18:28:54.704Z,2.10
2023-02-28T18:31:40.730Z,1.95
2023-02-28T18:34:26.458Z,2.00
2023-02-28T18:37:12.334Z,1.77
2023-02-28T18:39:58.155Z,1.77
2023-02-28T18:42:43.389Z,1.92
2023-02-28T18:45:29.148Z,2.20
2023-02-28T18:48:19.601Z,2.58
2023-02-28T18:51:09.945Z,2.65
2023-02-28T18:54:01.896Z,2.65
2023-02-28T18:56:48.544Z,2.30
2023-02-28T18:59:34.243Z,2.45
2023-02-28T19:02:20.220Z,1.95
2023-02-28T19:05:08.506Z,1.60
2023-02-28T19:07:56.661Z,1.80
2023-02-28T19:10:42.416Z,1.55
2023-02-28T19:13:28.972Z,1.67
2023-02-28T19:16:18.841Z,1.80
2023-02-28T19:19:04.755Z,1.75
2023-02-28T19:21:50.378Z,3.70
2023-02-28T19:24:35.616Z,1.90
2023-02-28T19:27:21.156Z,1.92
2023-02-28T19:30:07.620Z,2.00
2023-02-28T19:32:53.107Z,2.55
2023-02-28T19:35:41.359Z,2.03
2023-02-28T19:38:27.310Z,2.55
2023-02-28T19:41:14.266Z,2.00
2023-02-28T19:43:59.472Z,2.20
2023-02-28T19:46:44.954Z,2.20
2023-02-28T19:49:30.747Z,2.28
2023-02-28T19:52:16.145Z,2.20
2023-02-28T19:55:01.520Z,2.40
2023-02-28T19:57:47.195Z,2.28
2023-02-28T20:00:32.888Z,3.75
2023-02-28T20:03:18.554Z,2.67
2023-02-28T20:06:07.407Z,2.65
2023-02-28T20:08:54.772Z,2.40
2023-02-28T20:11:40.408Z,3.10
2023-02-28T20:14:26.616Z,2.60
2023-02-28T20:17:12.064Z,2.80
2023-02-28T20:19:57.291Z,2.92
2023-02-28T20:22:42.911Z,3.50
2023-02-28T20:25:28.441Z,3.30
2023-02-28T20:28:13.988Z,4.75
2023-02-28T20:31:00.637Z,6.53
2023-02-28T20:33:47.531Z,7.15
2023-02-28T20:36:33.187Z,8.85
2023-02-28T20:39:19.038Z,8.45
2023-02-28T20:42:04.649Z,9.20
2023-02-28T20:44:50.243Z,9.63
2023-02-28T20:47:35.677Z,10.25
2023-02-28T20:50:21.324Z,9.82
2023-02-28T20:53:06.901Z,10.13
2023-02-28T20:56:01.323Z,9.65
2023-02-28T20:58:48.991Z,8.52
2023-02-28T21:01:34.286Z,9.90
2023-02-28T21:04:20.182Z,9.02
2023-02-28T21:07:05.716Z,7.82
2023-02-28T21:09:51.340Z,7.40
2023-02-28T21:12:36.915Z,8.27
2023-02-28T21:15:22.813Z,7.68
2023-02-28T21:18:08.112Z,7.07
2023-02-28T21:20:53.736Z,8.70
2023-02-28T21:23:39.725Z,9.82
2023-02-28T21:26:25.529Z,8.98
2023-02-28T21:29:12.018Z,9.05
2023-02-28T21:31:57.589Z,7.95
2023-02-28T21:34:43.340Z,8.82
2023-02-28T21:37:28.641Z,7.68
2023-02-28T21:40:14.463Z,7.45
2023-02-28T21:42:59.731Z,7.78
2023-02-28T21:45:45.248Z,7.97
2023-02-28T21:48:31.232Z,8.75
2023-02-28T21:51:19.414Z,8.85
2023-02-28T21:54:04.949Z,10.18
2023-02-28T21:56:53.131Z,9.82
2023-02-28T21:59:38.822Z,9.05
2023-02-28T22:02:24.555Z,8.90
2023-02-28T22:05:10.110Z,8.02
2023-02-28T22:07:55.732Z,7.80
2023-02-28T22:10:41.310Z,6.00
2023-02-28T22:13:26.901Z,6.28
2023-02-28T22:16:15.836Z,4.57
2023-02-28T22:19:05.024Z,4.25
2023-02-28T22:21:50.668Z,3.90
2023-02-28T22:24:36.205Z,4.25
2023-02-28T22:27:21.887Z,4.70
2023-02-28T22:30:07.788Z,4.63
2023-02-28T22:32:53.253Z,5.22
2023-02-28T22:35:38.599Z,5.50
2023-02-28T22:38:24.103Z,5.40
2023-02-28T22:41:11.863Z,5.93
2023-02-28T22:44:00.477Z,5.57
2023-02-28T22:46:45.762Z,5.80
2023-02-28T22:49:31.213Z,6.40
2023-02-28T22:52:16.747Z,6.47
2023-02-28T22:55:01.935Z,6.40
2023-02-28T22:57:47.498Z,6.43
2023-02-28T23:00:32.759Z,7.85
2023-02-28T23:03:18.525Z,8.35
2023-02-28T23:06:13.818Z,7.35
2023-02-28T23:09:02.053Z,7.65
2023-02-28T23:11:50.493Z,7.32
2023-02-28T23:14:35.946Z,7.95
2023-02-28T23:17:21.603Z,7.75
2023-02-28T23:20:07.373Z,7.72
2023-02-28T23:22:53.023Z,8.50
2023-02-28T23:25:42.508Z,9.00
2023-02-28T23:28:27.856Z,8.10
2023-02-28T23:31:13.517Z,8.35
2023-02-28T23:33:59.237Z,9.35
2023-02-28T23:36:47.399Z,9.55
2023-02-28T23:39:32.893Z,9.15
2023-02-28T23:42:18.685Z,9.25
2023-02-28T23:45:05.092Z,10.40
2023-02-28T23:47:50.525Z,9.48
2023-02-28T23:50:38.066Z,9.40
2023-02-28T23:53:24.309Z,9.52
2023-02-28T23:56:13.777Z,9.45
2023-02-28T23:58:59.680Z,9.68
